createdAt,value
2019-02-05T00:01:46.261Z,2.06
2019-02-05T00:04:18.085Z,2.09
2019-02-05T00:06:49.946Z,1.98
2019-02-05T00:09:24.929Z,1.95
2019-02-05T00:11:56.762Z,1.94
2019-02-05T00:14:28.959Z,1.92
2019-02-05T00:17:03.799Z,1.88
2019-02-05T00:19:35.621Z,1.85
2019-02-05T00:22:07.469Z,1.83
2019-02-05T00:24:42.620Z,1.76
2019-02-05T00:27:14.460Z,1.74
2019-02-05T00:29:46.289Z,1.73
2019-02-05T00:32:19.742Z,1.71
2019-02-05T00:34:52.725Z,1.70
2019-02-05T00:37:24.964Z,1.67
2019-02-05T00:40:00.721Z,1.65
2019-02-05T00:42:34.851Z,1.67
2019-02-05T00:45:09.267Z,1.64
2019-02-05T00:47:42.983Z,1.64
2019-02-05T00:50:15.673Z,1.65
2019-02-05T00:52:48.792Z,1.65
2019-02-05T00:55:22.585Z,1.64
2019-02-05T00:57:57.210Z,1.64
2019-02-05T01:00:31.321Z,1.65
2019-02-05T01:03:03.263Z,1.69
2019-02-05T01:05:35.091Z,1.69
2019-02-05T01:08:09.657Z,1.67
2019-02-05T01:10:41.886Z,1.65
2019-02-05T01:13:19.480Z,1.65
2019-02-05T01:15:51.356Z,1.58
2019-02-05T01:18:23.452Z,1.57
2019-02-05T01:20:55.262Z,1.56
2019-02-05T01:23:27.106Z,1.59
2019-02-05T01:26:00.176Z,1.57
2019-02-05T01:28:33.101Z,1.57
2019-02-05T01:31:06.416Z,1.56
2019-02-05T01:33:38.350Z,1.50
2019-02-05T01:36:10.188Z,1.47
2019-02-05T01:38:41.998Z,1.35
2019-02-05T01:41:13.905Z,1.25
2019-02-05T01:43:45.722Z,1.21
2019-02-05T01:46:17.580Z,1.19
2019-02-05T01:48:49.394Z,1.20
2019-02-05T01:51:21.235Z,1.17
2019-02-05T01:53:53.049Z,1.10
2019-02-05T01:56:25.981Z,1.07
2019-02-05T01:58:57.820Z,1.05
2019-02-05T02:01:30.766Z,1.04
2019-02-05T02:04:02.608Z,0.97
2019-02-05T02:06:34.449Z,0.96
2019-02-05T02:09:07.317Z,0.93
2019-02-05T02:11:39.146Z,0.93
2019-02-05T02:14:11.026Z,0.99
2019-02-05T02:16:42.863Z,0.94
2019-02-05T02:19:14.711Z,0.88
2019-02-05T02:21:46.550Z,0.87
2019-02-05T02:24:18.392Z,0.82
2019-02-05T02:26:52.021Z,0.80
2019-02-05T02:29:24.889Z,0.74
2019-02-05T02:31:56.725Z,0.78
2019-02-05T02:34:29.000Z,0.71
2019-02-05T02:37:00.814Z,0.63
2019-02-05T02:39:34.950Z,0.63
2019-02-05T02:42:06.779Z,0.63
2019-02-05T02:44:38.588Z,0.55
2019-02-05T02:47:12.506Z,0.53
2019-02-05T02:49:44.330Z,0.56
2019-02-05T02:52:16.185Z,0.52
2019-02-05T02:54:47.989Z,0.44
2019-02-05T02:57:19.829Z,0.42
2019-02-05T02:59:51.673Z,0.43
2019-02-05T03:02:23.518Z,0.43
2019-02-05T03:04:55.373Z,0.41
2019-02-05T03:07:27.207Z,0.45
2019-02-05T03:10:00.689Z,0.40
2019-02-05T03:12:33.777Z,0.38
2019-02-05T03:15:10.976Z,0.30
2019-02-05T03:17:42.768Z,0.24
2019-02-05T03:20:15.219Z,0.24
2019-02-05T03:22:48.527Z,0.26
2019-02-05T03:25:22.558Z,0.25
2019-02-05T03:27:54.641Z,0.21
2019-02-05T03:30:26.503Z,0.17
2019-02-05T03:32:58.355Z,0.18
2019-02-05T03:35:30.180Z,0.17
2019-02-05T03:38:04.964Z,0.12
2019-02-05T03:41:03.506Z,0.14
2019-02-05T03:43:40.985Z,0.16
2019-02-05T03:46:18.600Z,0.12
2019-02-05T03:48:51.352Z,0.09
2019-02-05T03:52:15.332Z,0.11
2019-02-05T03:55:46.280Z,0.03
2019-02-05T03:59:15.846Z,0.06
2019-02-05T04:02:40.898Z,0.04
2019-02-05T04:05:54.073Z,-0.02
2019-02-05T04:09:02.319Z,-0.08
2019-02-05T04:12:39.213Z,-0.13
2019-02-05T04:15:36.388Z,-0.19
2019-02-05T04:18:57.494Z,-0.16
2019-02-05T04:22:33.646Z,-0.23
2019-02-05T04:26:30.162Z,-0.25
2019-02-05T04:29:48.329Z,-0.24
2019-02-05T04:32:59.420Z,-0.24
2019-02-05T04:36:43.478Z,-0.29
2019-02-05T04:39:40.538Z,-0.25
2019-02-05T04:43:05.111Z,-0.29
2019-02-05T04:46:28.139Z,-0.36
2019-02-05T04:49:59.960Z,-0.35
2019-02-05T04:53:21.146Z,-0.31
2019-02-05T04:56:46.535Z,-0.28
2019-02-05T05:00:22.690Z,-0.30
2019-02-05T05:03:37.671Z,-0.31
2019-02-05T05:07:11.570Z,-0.28
2019-02-05T05:10:06.152Z,-0.39
2019-02-05T05:12:38.027Z,-0.45
2019-02-05T05:15:11.942Z,-0.44
2019-02-05T05:17:43.749Z,-0.51
2019-02-05T05:20:15.630Z,-0.47
2019-02-05T05:22:47.816Z,-0.43
2019-02-05T05:25:21.050Z,-0.45
2019-02-05T05:28:09.456Z,-0.46
2019-02-05T05:30:31.968Z,-0.46
2019-02-05T05:33:03.797Z,-0.48
2019-02-05T05:35:44.113Z,-0.49
2019-02-05T05:38:09.475Z,-0.46
2019-02-05T05:40:41.378Z,-0.44
2019-02-05T05:43:14.855Z,-0.50
2019-02-05T05:45:46.697Z,-0.54
2019-02-05T05:48:18.788Z,-0.62
2019-02-05T05:50:51.745Z,-0.73
2019-02-05T05:53:23.552Z,-0.75
2019-02-05T05:55:55.430Z,-0.75
2019-02-05T05:58:30.026Z,-0.66
2019-02-05T06:01:01.970Z,-0.59
2019-02-05T06:03:33.852Z,-0.62
2019-02-05T06:06:06.802Z,-0.68
2019-02-05T06:08:38.883Z,-0.68
2019-02-05T06:11:12.383Z,-0.75
2019-02-05T06:13:44.303Z,-0.77
2019-02-05T06:16:16.155Z,-0.80
2019-02-05T06:18:47.980Z,-0.80
2019-02-05T06:21:21.584Z,-0.84
2019-02-05T06:23:53.720Z,-0.79
2019-02-05T06:26:25.815Z,-0.79
2019-02-05T06:28:57.849Z,-0.80
2019-02-05T06:31:29.676Z,-0.84
2019-02-05T06:34:01.651Z,-0.83
2019-02-05T06:36:35.050Z,-0.84
2019-02-05T06:39:10.034Z,-0.84
2019-02-05T06:41:41.885Z,-0.81
2019-02-05T06:44:13.732Z,-0.79
2019-02-05T06:46:45.551Z,-0.79
2019-02-05T06:49:17.398Z,-0.83
2019-02-05T06:51:49.615Z,-0.81
2019-02-05T06:54:21.468Z,-0.83
2019-02-05T06:56:53.287Z,-0.84
2019-02-05T06:59:25.164Z,-0.85
2019-02-05T07:01:56.972Z,-0.88
2019-02-05T07:04:29.314Z,-0.86
2019-02-05T07:07:01.128Z,-0.81
2019-02-05T07:09:32.950Z,-0.74
2019-02-05T07:12:04.918Z,-0.60
2019-02-05T07:14:36.727Z,-0.45
2019-02-05T07:17:08.926Z,-0.37
2019-02-05T07:19:40.742Z,-0.29
2019-02-05T07:22:12.598Z,-0.15
2019-02-05T07:24:44.421Z,-0.03
2019-02-05T07:27:16.255Z,0.08
2019-02-05T07:29:48.055Z,0.20
2019-02-05T07:32:19.881Z,0.34
2019-02-05T07:34:51.751Z,0.52
2019-02-05T07:37:23.557Z,0.63
2019-02-05T07:39:55.354Z,0.75
2019-02-05T07:42:27.176Z,0.82
2019-02-05T07:44:59.156Z,0.92
2019-02-05T07:47:33.995Z,0.99
2019-02-05T07:50:08.372Z,1.14
2019-02-05T07:52:40.207Z,1.26
2019-02-05T07:55:12.641Z,1.33
2019-02-05T07:57:44.702Z,1.39
2019-02-05T08:00:24.347Z,1.40
2019-02-05T08:02:56.530Z,1.52
2019-02-05T08:05:32.270Z,1.67
2019-02-05T08:08:04.727Z,1.76
2019-02-05T08:10:36.792Z,1.70
2019-02-05T08:13:08.923Z,1.74
2019-02-05T08:15:40.715Z,1.84
2019-02-05T08:18:12.540Z,1.95
2019-02-05T08:20:44.335Z,2.08
2019-02-05T08:23:16.177Z,2.24
2019-02-05T08:25:48.384Z,2.39
2019-02-05T08:28:20.184Z,2.46
2019-02-05T08:30:51.975Z,2.53
2019-02-05T08:33:23.963Z,2.65
2019-02-05T08:35:55.742Z,2.79
2019-02-05T08:38:28.811Z,2.86
2019-02-05T08:41:00.615Z,2.98
2019-02-05T08:43:32.427Z,3.15
2019-02-05T08:46:04.205Z,3.26
2019-02-05T08:48:36.024Z,3.28
2019-02-05T08:51:09.653Z,3.33
2019-02-05T08:53:41.443Z,3.38
2019-02-05T08:56:13.288Z,3.52
2019-02-05T08:58:45.108Z,3.63
2019-02-05T09:01:16.921Z,3.78
2019-02-05T09:03:48.708Z,3.95
2019-02-05T09:06:20.796Z,3.99
2019-02-05T09:08:52.595Z,3.90
2019-02-05T09:11:24.513Z,3.81
2019-02-05T09:13:56.394Z,3.90
2019-02-05T09:16:28.193Z,3.95
2019-02-05T09:19:03.634Z,4.06
2019-02-05T09:21:35.427Z,4.16
2019-02-05T09:24:07.423Z,4.20
2019-02-05T09:26:39.247Z,4.23
2019-02-05T09:29:11.095Z,4.34
2019-02-05T09:31:43.169Z,4.44
2019-02-05T09:34:15.039Z,4.58
2019-02-05T09:36:46.840Z,4.70
2019-02-05T09:39:18.666Z,4.86
2019-02-05T09:41:50.482Z,4.93
2019-02-05T09:44:22.312Z,5.13
2019-02-05T09:46:54.136Z,5.31
2019-02-05T09:49:31.808Z,5.45
2019-02-05T09:52:02.375Z,5.53
2019-02-05T09:54:34.362Z,5.67
2019-02-05T09:57:06.450Z,5.75
2019-02-05T09:59:45.163Z,5.89
2019-02-05T10:02:11.864Z,5.87
2019-02-05T10:04:44.998Z,5.93
2019-02-05T10:07:19.194Z,6.07
2019-02-05T10:09:50.714Z,6.19
2019-02-05T10:12:22.242Z,6.20
2019-02-05T10:14:54.750Z,6.29
2019-02-05T10:17:26.555Z,6.38
2019-02-05T10:19:58.106Z,6.43
2019-02-05T10:22:29.905Z,6.50
2019-02-05T10:25:02.041Z,6.57
2019-02-05T10:27:33.824Z,6.58
2019-02-05T10:30:09.728Z,6.65
2019-02-05T10:32:41.256Z,6.68
2019-02-05T10:35:14.652Z,6.77
2019-02-05T10:37:49.542Z,6.85
2019-02-05T10:40:26.970Z,6.90
2019-02-05T10:42:59.870Z,6.99
2019-02-05T10:45:31.496Z,7.04
2019-02-05T10:48:03.034Z,7.06
2019-02-05T10:50:34.870Z,7.12
2019-02-05T10:53:15.476Z,7.22
2019-02-05T10:55:48.194Z,7.22
2019-02-05T10:58:19.776Z,7.15
2019-02-05T11:00:51.583Z,7.21
2019-02-05T11:03:23.112Z,7.28
2019-02-05T11:05:54.620Z,7.25
2019-02-05T11:08:26.152Z,7.33
2019-02-05T11:10:59.083Z,7.37
2019-02-05T11:13:34.291Z,7.35
2019-02-05T11:16:08.088Z,7.43
2019-02-05T11:18:43.836Z,7.27
2019-02-05T11:21:17.407Z,7.13
2019-02-05T11:23:51.701Z,7.06
2019-02-05T11:26:23.327Z,7.14
2019-02-05T11:28:57.196Z,7.22
2019-02-05T11:31:28.748Z,7.31
2019-02-05T11:34:03.117Z,7.39
2019-02-05T11:36:36.452Z,7.43
2019-02-05T11:39:20.634Z,7.40
2019-02-05T11:41:54.891Z,7.44
2019-02-05T11:44:26.695Z,7.51
2019-02-05T11:47:03.959Z,7.47
2019-02-05T11:49:37.748Z,7.42
2019-02-05T11:52:09.904Z,7.32
2019-02-05T11:54:43.211Z,7.34
2019-02-05T11:57:17.269Z,7.20
2019-02-05T11:59:49.121Z,7.15
2019-02-05T12:02:20.798Z,7.22
2019-02-05T12:05:04.193Z,7.30
2019-02-05T12:07:38.518Z,7.36
2019-02-05T12:10:11.804Z,7.43
2019-02-05T12:12:46.138Z,7.47
2019-02-05T12:15:19.873Z,7.51
2019-02-05T12:17:54.175Z,7.59
2019-02-05T12:20:30.065Z,7.55
2019-02-05T12:23:04.859Z,7.51
2019-02-05T12:25:38.754Z,7.50
2019-02-05T12:28:13.859Z,7.57
2019-02-05T12:30:45.780Z,7.58
2019-02-05T12:33:19.419Z,7.69
2019-02-05T12:35:53.684Z,7.71
2019-02-05T12:38:26.808Z,7.72
2019-02-05T12:40:59.481Z,7.72
2019-02-05T12:43:33.810Z,7.74
2019-02-05T12:46:06.934Z,7.78
2019-02-05T12:48:43.092Z,7.81
2019-02-05T12:51:19.326Z,7.88
2019-02-05T12:53:56.364Z,7.86
2019-02-05T12:56:29.604Z,7.88
2019-02-05T12:59:06.128Z,7.91
2019-02-05T13:01:42.053Z,7.96
2019-02-05T13:04:13.640Z,7.95
2019-02-05T13:06:49.915Z,7.94
2019-02-05T13:09:21.606Z,7.99
2019-02-05T13:11:56.137Z,8.02
2019-02-05T13:14:27.673Z,8.00
2019-02-05T13:17:04.477Z,8.01
2019-02-05T13:19:39.058Z,8.05
2019-02-05T13:22:15.075Z,8.07
2019-02-05T13:24:46.700Z,8.09
2019-02-05T13:27:20.924Z,8.03
2019-02-05T13:29:52.831Z,8.07
2019-02-05T13:32:27.425Z,8.03
2019-02-05T13:34:58.981Z,8.01
2019-02-05T13:37:30.482Z,8.04
2019-02-05T13:40:08.425Z,8.02
2019-02-05T13:42:39.954Z,7.96
2019-02-05T13:45:18.374Z,7.89
2019-02-05T13:47:50.090Z,7.94
2019-02-05T13:50:33.523Z,8.00
2019-02-05T13:53:04.539Z,8.05
2019-02-05T13:55:39.612Z,8.07
2019-02-05T13:58:11.977Z,8.14
2019-02-05T14:00:54.053Z,8.22
2019-02-05T14:03:27.299Z,8.26
2019-02-05T14:05:58.864Z,8.31
2019-02-05T14:08:34.732Z,8.32
2019-02-05T14:11:06.504Z,8.29
2019-02-05T14:13:43.794Z,8.25
2019-02-05T14:16:17.572Z,8.23
2019-02-05T14:18:55.333Z,8.28
2019-02-05T14:21:25.466Z,8.31
2019-02-05T14:23:57.295Z,8.33
2019-02-05T14:26:35.904Z,8.31
2019-02-05T14:29:07.459Z,8.31
2019-02-05T14:31:40.735Z,8.27
2019-02-05T14:34:16.492Z,8.27
2019-02-05T14:36:51.055Z,8.28
2019-02-05T14:39:22.606Z,8.30
2019-02-05T14:41:54.166Z,8.31
2019-02-05T14:44:27.011Z,8.32
2019-02-05T14:46:58.540Z,8.36
2019-02-05T14:49:30.387Z,8.37
2019-02-05T14:52:01.944Z,8.38
2019-02-05T14:54:33.493Z,8.32
2019-02-05T14:57:06.374Z,8.36
2019-02-05T14:59:38.043Z,8.40
2019-02-05T15:02:09.674Z,8.33
2019-02-05T15:04:41.163Z,8.29
2019-02-05T15:07:12.738Z,8.23
2019-02-05T15:09:44.308Z,8.24
2019-02-05T15:12:15.834Z,8.26
2019-02-05T15:14:47.424Z,8.28
2019-02-05T15:17:18.957Z,8.29
2019-02-05T15:19:50.485Z,8.29
2019-02-05T15:22:22.055Z,8.26
2019-02-05T15:24:53.596Z,8.21
2019-02-05T15:27:27.286Z,8.18
2019-02-05T15:29:58.849Z,8.15
2019-02-05T15:32:45.650Z,8.13
2019-02-05T15:35:17.482Z,8.04
2019-02-05T15:37:49.051Z,7.98
2019-02-05T15:40:20.630Z,7.94
2019-02-05T15:42:52.323Z,7.89
2019-02-05T15:45:24.602Z,7.83
2019-02-05T15:47:56.186Z,7.83
2019-02-05T15:50:27.826Z,7.81
2019-02-05T15:52:59.408Z,7.79
2019-02-05T15:55:30.919Z,7.76
2019-02-05T15:58:02.736Z,7.73
2019-02-05T16:00:34.847Z,7.69
2019-02-05T16:03:09.571Z,7.67
2019-02-05T16:05:41.119Z,7.63
2019-02-05T16:08:16.764Z,7.53
2019-02-05T16:10:50.651Z,7.50
2019-02-05T16:13:22.351Z,7.44
2019-02-05T16:16:01.158Z,7.38
2019-02-05T16:18:35.939Z,7.36
2019-02-05T16:21:07.576Z,7.33
2019-02-05T16:23:40.558Z,7.26
2019-02-05T16:26:14.912Z,7.23
2019-02-05T16:28:47.527Z,7.18
2019-02-05T16:31:19.037Z,7.10
2019-02-05T16:33:56.335Z,7.03
2019-02-05T16:36:25.638Z,6.92
2019-02-05T16:38:57.211Z,6.82
2019-02-05T16:41:28.762Z,6.75
2019-02-05T16:44:00.281Z,6.68
2019-02-05T16:46:33.672Z,6.59
2019-02-05T16:49:06.209Z,6.50
2019-02-05T16:51:37.806Z,6.39
2019-02-05T16:54:09.391Z,6.33
2019-02-05T16:56:45.741Z,6.23
2019-02-05T16:59:19.998Z,6.11
2019-02-05T17:01:53.823Z,5.98
2019-02-05T17:04:25.381Z,5.89
2019-02-05T17:06:56.949Z,5.83
2019-02-05T17:09:28.490Z,5.81
2019-02-05T17:12:00.075Z,5.77
2019-02-05T17:14:31.616Z,5.66
2019-02-05T17:17:05.211Z,5.56
2019-02-05T17:19:36.762Z,5.50
2019-02-05T17:22:08.341Z,5.42
2019-02-05T17:24:39.928Z,5.33
2019-02-05T17:27:11.512Z,5.26
2019-02-05T17:29:43.062Z,5.15
2019-02-05T17:32:14.610Z,5.06
2019-02-05T17:34:48.259Z,4.97
2019-02-05T17:37:19.789Z,4.88
2019-02-05T17:39:51.651Z,4.83
2019-02-05T17:42:23.585Z,4.76
2019-02-05T17:44:56.215Z,4.69
2019-02-05T17:47:27.797Z,4.56
2019-02-05T17:50:00.347Z,4.49
2019-02-05T17:52:32.154Z,4.42
2019-02-05T17:55:04.549Z,4.35
2019-02-05T17:57:36.778Z,4.29
2019-02-05T18:00:16.159Z,4.25
2019-02-05T18:02:51.659Z,4.18
2019-02-05T18:05:22.084Z,4.15
2019-02-05T18:07:56.819Z,4.10
2019-02-05T18:10:29.000Z,4.05
2019-02-05T18:13:00.827Z,3.98
2019-02-05T18:15:33.902Z,3.94
2019-02-05T18:18:12.608Z,3.89
2019-02-05T18:20:44.634Z,3.85
2019-02-05T18:23:41.098Z,3.79
2019-02-05T18:29:15.466Z,3.63
2019-02-05T18:31:47.378Z,3.56
2019-02-05T18:34:19.333Z,3.53
2019-02-05T18:36:51.466Z,3.51
2019-02-05T18:39:23.502Z,3.48
2019-02-05T18:41:55.514Z,3.46
2019-02-05T18:44:27.477Z,3.43
2019-02-05T18:53:04.464Z,3.35
2019-02-05T18:55:37.066Z,3.42
2019-02-05T18:58:11.749Z,3.34
2019-02-05T19:00:44.455Z,3.32
2019-02-05T19:03:18.736Z,3.31
2019-02-05T19:05:50.638Z,3.29
2019-02-05T19:08:22.496Z,3.28
2019-02-05T19:10:55.595Z,3.17
2019-02-05T19:13:29.576Z,3.11
2019-02-05T19:16:04.133Z,3.13
2019-02-05T19:18:37.080Z,3.11
2019-02-05T19:21:14.679Z,3.06
2019-02-05T19:23:51.263Z,3.06
2019-02-05T19:26:35.250Z,3.04
2019-02-05T19:29:18.250Z,3.02
2019-02-05T19:31:42.827Z,3.01
2019-02-05T19:34:14.983Z,2.99
2019-02-05T19:36:46.824Z,2.99
2019-02-05T19:39:18.696Z,2.96
2019-02-05T19:41:54.695Z,2.93
2019-02-05T19:44:26.511Z,2.91
2019-02-05T19:47:09.692Z,2.87
2019-02-05T19:49:44.320Z,2.84
2019-02-05T19:52:19.198Z,2.75
2019-02-05T19:54:51.279Z,2.70
2019-02-05T19:57:23.256Z,2.75
2019-02-05T19:59:58.154Z,2.65
2019-02-05T20:02:30.005Z,2.63
2019-02-05T20:05:03.294Z,2.57
2019-02-05T20:07:36.761Z,2.54
2019-02-05T20:10:11.528Z,2.57
2019-02-05T20:12:43.318Z,2.55
2019-02-05T20:15:19.657Z,2.50
2019-02-05T20:17:52.002Z,2.49
2019-02-05T20:20:23.860Z,2.45
2019-02-05T20:22:58.781Z,2.44
2019-02-05T20:25:32.288Z,2.42
2019-02-05T20:28:05.738Z,2.34
2019-02-05T20:30:40.457Z,2.33
2019-02-05T20:33:25.296Z,2.29
2019-02-05T20:35:57.115Z,2.24
2019-02-05T20:38:30.823Z,2.23
2019-02-05T20:41:08.823Z,2.21
2019-02-05T20:43:41.033Z,2.16
2019-02-05T20:46:12.920Z,2.10
2019-02-05T20:48:46.254Z,2.11
2019-02-05T20:51:18.138Z,2.09
2019-02-05T20:53:53.076Z,2.04
2019-02-05T20:56:25.367Z,2.02
2019-02-05T20:58:57.232Z,2.01
2019-02-05T21:01:30.816Z,1.99
2019-02-05T21:04:05.735Z,1.98
2019-02-05T21:06:37.801Z,1.96
2019-02-05T21:09:23.131Z,1.93
2019-02-05T21:11:56.434Z,1.92
2019-02-05T21:14:30.955Z,1.95
2019-02-05T21:17:05.871Z,1.96
2019-02-05T21:19:37.938Z,1.89
2019-02-05T21:22:13.046Z,1.86
2019-02-05T21:24:43.530Z,1.84
2019-02-05T21:27:18.139Z,1.84
2019-02-05T21:29:51.283Z,1.78
2019-02-05T21:32:23.101Z,1.75
2019-02-05T21:34:56.997Z,1.76
2019-02-05T21:37:30.777Z,1.73
2019-02-05T21:40:02.922Z,1.72
2019-02-05T21:42:34.769Z,1.73
2019-02-05T21:45:10.367Z,1.69
2019-02-05T21:47:46.677Z,1.69
2019-02-05T21:50:22.596Z,1.69
2019-02-05T21:52:57.564Z,1.63
2019-02-05T21:55:35.716Z,1.61
2019-02-05T21:58:07.806Z,1.53
2019-02-05T22:00:47.789Z,1.51
2019-02-05T22:03:19.645Z,1.55
2019-02-05T22:05:53.663Z,1.50
2019-02-05T22:08:27.794Z,1.51
2019-02-05T22:11:02.961Z,1.48
2019-02-05T22:13:34.838Z,1.48
2019-02-05T22:16:07.930Z,1.42
2019-02-05T22:18:45.651Z,1.51
2019-02-05T22:21:19.618Z,1.41
2019-02-05T22:23:53.560Z,1.40
2019-02-05T22:26:29.213Z,1.45
2019-02-05T22:29:04.329Z,1.44
2019-02-05T22:31:37.466Z,1.33
2019-02-05T22:34:12.803Z,1.19
2019-02-05T22:36:44.673Z,1.04
2019-02-05T22:39:18.942Z,1.06
2019-02-05T22:41:50.812Z,1.01
2019-02-05T22:44:22.681Z,0.99
2019-02-05T22:46:54.775Z,0.99
2019-02-05T22:49:26.772Z,0.97
2019-02-05T22:52:00.822Z,0.97
2019-02-05T22:54:35.463Z,0.93
2019-02-05T22:57:07.294Z,0.90
2019-02-05T22:59:42.168Z,0.87
2019-02-05T23:02:15.425Z,0.89
2019-02-05T23:05:30.109Z,0.87
2019-02-05T23:08:04.711Z,0.89
2019-02-05T23:11:39.451Z,0.83
2019-02-05T23:14:14.134Z,0.78
2019-02-05T23:16:51.060Z,0.67
2019-02-05T23:19:24.900Z,0.69
2019-02-05T23:21:56.768Z,0.68
2019-02-05T23:24:28.577Z,0.75
2019-02-05T23:27:02.326Z,0.67
2019-02-05T23:29:36.481Z,0.62
2019-02-05T23:32:11.211Z,0.61
2019-02-05T23:34:43.075Z,0.59
2019-02-05T23:37:15.123Z,0.59
2019-02-05T23:39:50.930Z,0.60
2019-02-05T23:42:25.139Z,0.54
2019-02-05T23:44:57.013Z,0.57
2019-02-05T23:47:36.114Z,0.57
2019-02-05T23:50:10.428Z,0.55
2019-02-05T23:52:42.536Z,0.53
2019-02-05T23:55:17.533Z,0.52
2019-02-05T23:57:58.764Z,0.48
